Terminal Aerodrome Forecast
Issued by NWS

Home | Current Version | Previous Version | Text Only | Print | Product List | Glossary On
Versions: 1 2 3 4 5 6 7 8 9 10 11 12 13 14 15 16
000
FTAK31 PAJN 012300
TAFAKT
TAF
PAKT 012330Z 0200/0224 13007KT P6SM -SHRA SCT025 BKN035 OVC050
     FM020400 12003KT P6SM -SHRA SCT015 OVC030
     FM020900 32005KT P6SM VCSH SCT015 BKN025 BKN035
     FM021300 32005KT P6SM SCT035 BKN050
     FM021900 34008KT P6SM SCT050 SCT070
      AMD LTD TO CLD VIS AND WIND 0206/0215=

USA.gov is the U.S. government's official web portal to all federal, state and local government web resources and services.